createdAt,value
2019-05-29T00:03:42.526Z,9.10
2019-05-29T00:08:46.207Z,5.33
2019-05-29T00:13:50.131Z,8.10
2019-05-29T00:18:53.818Z,8.13
2019-05-29T00:23:57.531Z,8.17
2019-05-29T00:29:01.270Z,8.47
2019-05-29T00:34:04.976Z,7.73
2019-05-29T00:39:08.748Z,7.50
2019-05-29T00:44:13.265Z,8.10
2019-05-29T00:49:18.083Z,11.13
2019-05-29T00:54:21.909Z,8.03
2019-05-29T00:59:25.705Z,10.87
2019-05-29T01:04:29.434Z,7.90
2019-05-29T01:09:33.397Z,6.40
2019-05-29T01:14:49.250Z,10.90
2019-05-29T01:19:42.473Z,8.50
2019-05-29T01:24:46.162Z,5.33
2019-05-29T01:29:49.853Z,7.13
2019-05-29T01:34:53.608Z,6.20
2019-05-29T01:39:57.340Z,6.53
2019-05-29T01:45:07.687Z,3.53
2019-05-29T01:50:07.529Z,3.67
2019-05-29T01:55:11.720Z,5.10
2019-05-29T02:00:15.898Z,3.90
2019-05-29T02:05:20.011Z,3.20
2019-05-29T02:10:24.376Z,7.77
2019-05-29T02:15:33.562Z,6.83
2019-05-29T02:20:33.598Z,6.23
2019-05-29T02:25:37.334Z,7.33
2019-05-29T02:30:41.043Z,2.90
2019-05-29T02:35:44.757Z,3.63
2019-05-29T02:40:48.680Z,3.10
2019-05-29T02:45:54.669Z,4.37
2019-05-29T02:50:58.118Z,3.83
2019-05-29T02:56:01.796Z,7.93
2019-05-29T03:01:05.584Z,5.77
2019-05-29T03:06:09.349Z,3.97
2019-05-29T03:11:13.247Z,4.57
2019-05-29T03:16:16.977Z,6.53
2019-05-29T03:21:20.915Z,4.83
2019-05-29T03:26:26.919Z,5.73
2019-05-29T03:31:36.887Z,3.40
2019-05-29T03:36:42.469Z,3.23
2019-05-29T03:41:40.827Z,2.27
2019-05-29T03:46:46.150Z,4.23
2019-05-29T03:51:50.076Z,6.90
2019-05-29T03:56:53.783Z,6.93
2019-05-29T04:01:57.454Z,5.47
2019-05-29T04:07:01.154Z,4.87
2019-05-29T04:12:04.865Z,8.30
2019-05-29T04:17:09.051Z,4.77
2019-05-29T04:22:14.707Z,6.03
2019-05-29T04:27:21.868Z,6.17
2019-05-29T04:32:25.666Z,6.73
2019-05-29T04:37:30.310Z,4.47
2019-05-29T04:42:35.779Z,4.43
2019-05-29T04:47:39.873Z,6.63
2019-05-29T04:52:44.101Z,4.93
2019-05-29T04:57:50.773Z,4.43
2019-05-29T05:02:53.212Z,3.73
2019-05-29T05:07:57.135Z,8.47
2019-05-29T05:13:00.894Z,3.70
2019-05-29T05:18:06.032Z,5.07
2019-05-29T05:23:09.961Z,4.53
2019-05-29T05:28:13.656Z,2.97
2019-05-29T05:33:17.572Z,4.10
2019-05-29T05:38:21.310Z,2.53
2019-05-29T05:43:25.062Z,4.33
2019-05-29T05:48:28.775Z,3.03
2019-05-29T05:53:33.350Z,7.40
2019-05-29T05:58:37.841Z,4.27
2019-05-29T06:03:42.545Z,4.10
2019-05-29T06:08:46.737Z,4.17
2019-05-29T06:13:50.457Z,5.53
2019-05-29T06:18:54.193Z,4.40
2019-05-29T06:23:58.142Z,4.93
2019-05-29T06:29:02.051Z,4.60
2019-05-29T06:34:05.890Z,4.37
2019-05-29T06:39:09.577Z,2.17
2019-05-29T06:44:13.504Z,5.60
2019-05-29T06:49:17.288Z,4.10
2019-05-29T06:54:21.033Z,6.40
2019-05-29T06:59:24.714Z,2.73
2019-05-29T07:04:28.451Z,3.90
2019-05-29T07:09:32.307Z,3.00
2019-05-29T07:14:36.365Z,4.57
2019-05-29T07:19:57.133Z,2.27
2019-05-29T07:24:45.624Z,3.97
2019-05-29T07:29:49.896Z,3.77
2019-05-29T07:35:03.087Z,2.33
2019-05-29T07:39:59.063Z,3.37
2019-05-29T07:45:02.768Z,2.27
2019-05-29T07:50:07.218Z,0.93
2019-05-29T07:55:11.256Z,5.67
2019-05-29T08:00:15.933Z,5.20
2019-05-29T08:05:19.727Z,2.87
2019-05-29T08:10:23.588Z,4.43
2019-05-29T08:15:27.625Z,3.17
2019-05-29T08:20:31.277Z,2.40
2019-05-29T08:25:34.977Z,6.03
2019-05-29T08:30:38.724Z,3.60
2019-05-29T08:35:43.071Z,3.37
2019-05-29T08:40:47.444Z,2.77
2019-05-29T08:45:52.676Z,1.93
2019-05-29T08:50:56.609Z,2.47
2019-05-29T08:56:00.456Z,3.93
2019-05-29T09:01:04.275Z,3.43
2019-05-29T09:06:09.643Z,3.23
2019-05-29T09:11:13.422Z,1.67
2019-05-29T09:16:17.336Z,3.20
2019-05-29T09:21:21.012Z,1.60
2019-05-29T09:26:26.028Z,1.90
2019-05-29T09:31:29.917Z,4.57
2019-05-29T09:36:33.746Z,2.30
2019-05-29T09:41:37.494Z,2.37
2019-05-29T09:46:41.190Z,1.85
2019-05-29T09:51:44.886Z,5.28
2019-05-29T09:56:48.629Z,0.93
2019-05-29T10:01:54.090Z,4.05
2019-05-29T10:06:57.981Z,3.98
2019-05-29T10:12:06.366Z,2.05
2019-05-29T10:17:11.745Z,1.12
2019-05-29T10:22:12.779Z,3.80
2019-05-29T10:27:16.446Z,2.72
2019-05-29T10:32:20.248Z,5.20
2019-05-29T10:37:24.067Z,1.37
2019-05-29T10:42:27.846Z,1.73
2019-05-29T10:47:31.571Z,1.90
2019-05-29T10:52:35.365Z,1.12
2019-05-29T10:57:39.057Z,2.62
2019-05-29T11:02:42.754Z,4.12
2019-05-29T11:07:47.640Z,0.95
2019-05-29T11:12:52.600Z,3.72
2019-05-29T11:17:57.380Z,1.60
2019-05-29T11:23:01.255Z,1.17
2019-05-29T11:28:05.042Z,1.15
2019-05-29T11:33:09.054Z,2.17
2019-05-29T11:38:12.806Z,1.55
2019-05-29T11:43:16.533Z,1.87
2019-05-29T11:48:20.439Z,2.65
2019-05-29T11:53:24.130Z,0.93
2019-05-29T11:58:31.016Z,1.65
2019-05-29T12:03:33.459Z,1.92
2019-05-29T12:08:37.163Z,6.33
2019-05-29T12:13:40.835Z,1.85
2019-05-29T12:18:44.715Z,2.05
2019-05-29T12:23:48.396Z,1.35
2019-05-29T12:28:53.977Z,2.10
2019-05-29T12:34:04.679Z,3.70
2019-05-29T12:39:04.212Z,1.12
2019-05-29T12:44:08.041Z,3.52
2019-05-29T12:49:11.757Z,2.02
2019-05-29T12:54:17.471Z,1.90
2019-05-29T12:59:21.142Z,1.50
2019-05-29T13:04:24.884Z,1.30
2019-05-29T13:09:28.562Z,0.88
2019-05-29T13:14:32.480Z,3.25
2019-05-29T13:19:36.231Z,0.42
2019-05-29T13:24:39.906Z,0.50
2019-05-29T13:29:43.826Z,1.47
2019-05-29T13:34:47.562Z,0.75
2019-05-29T13:39:51.467Z,1.72
2019-05-29T13:44:58.931Z,1.32
2019-05-29T13:50:05.717Z,0.70
2019-05-29T13:55:07.583Z,0.88
2019-05-29T14:05:18.923Z,1.77
2019-05-29T14:10:22.791Z,2.15
2019-05-29T14:15:26.552Z,3.30
2019-05-29T14:32:20.213Z,2.55
2019-05-29T14:37:04.540Z,3.10
2019-05-29T14:43:05.403Z,2.72
2019-05-29T14:48:25.242Z,2.30
2019-05-29T14:54:10.883Z,2.77
2019-05-29T14:59:54.742Z,0.75
2019-05-29T15:05:05.686Z,1.05
2019-05-29T15:11:27.432Z,0.68
2019-05-29T15:16:34.281Z,0.50
2019-05-29T15:21:41.159Z,4.58
2019-05-29T15:26:48.448Z,0.75
2019-05-29T15:31:52.712Z,1.35
2019-05-29T15:36:56.711Z,1.57
2019-05-29T15:42:00.427Z,1.07
2019-05-29T15:47:04.222Z,0.98
2019-05-29T15:52:08.949Z,0.50
2019-05-29T15:57:13.122Z,1.20
2019-05-29T16:02:18.005Z,1.67
2019-05-29T16:07:22.113Z,1.98
2019-05-29T16:12:30.422Z,3.35
2019-05-29T16:17:31.272Z,2.08
2019-05-29T16:22:35.030Z,0.65
2019-05-29T16:27:38.866Z,1.95
2019-05-29T16:32:42.577Z,1.32
2019-05-29T16:37:46.262Z,1.72
2019-05-29T16:42:50.062Z,1.07
2019-05-29T16:47:54.011Z,1.90
2019-05-29T16:52:57.993Z,0.72
2019-05-29T16:58:04.106Z,1.57
2019-05-29T17:03:07.887Z,3.20
2019-05-29T17:08:11.961Z,2.25
2019-05-29T17:13:16.621Z,3.33
2019-05-29T17:18:25.857Z,3.92
2019-05-29T17:23:34.165Z,1.90
2019-05-29T17:28:38.140Z,0.75
2019-05-29T17:33:44.958Z,1.25
2019-05-29T17:38:48.889Z,1.87
2019-05-29T17:43:52.623Z,1.15
2019-05-29T17:48:56.690Z,2.25
2019-05-29T17:54:00.406Z,0.85
2019-05-29T17:59:09.195Z,1.50
2019-05-29T18:04:13.038Z,3.22
2019-05-29T18:09:17.237Z,2.90
2019-05-29T18:14:21.529Z,1.85
2019-05-29T18:19:25.923Z,1.30
2019-05-29T18:24:30.162Z,2.15
2019-05-29T18:29:34.103Z,2.08
2019-05-29T18:34:37.919Z,2.80
2019-05-29T18:39:41.835Z,2.02
2019-05-29T18:44:45.575Z,1.20
2019-05-29T18:49:49.615Z,2.75
2019-05-29T18:54:53.815Z,1.00
2019-05-29T18:59:57.626Z,1.57
2019-05-29T19:05:01.388Z,3.17
2019-05-29T19:10:06.798Z,1.47
2019-05-29T19:15:11.134Z,3.83
2019-05-29T19:20:15.813Z,2.27
2019-05-29T19:25:19.694Z,2.07
2019-05-29T19:30:24.738Z,2.80
2019-05-29T19:35:29.583Z,1.03
2019-05-29T19:40:34.527Z,1.90
2019-05-29T19:45:39.245Z,1.83
2019-05-29T19:50:45.945Z,0.63
2019-05-29T19:55:50.631Z,1.90
2019-05-29T20:00:56.318Z,1.27
2019-05-29T20:06:00.880Z,1.70
2019-05-29T20:11:06.945Z,2.73
2019-05-29T20:16:12.965Z,2.83
2019-05-29T20:21:18.575Z,2.57
2019-05-29T20:26:22.376Z,4.73
2019-05-29T20:31:26.144Z,5.70
2019-05-29T20:36:33.236Z,2.40
2019-05-29T20:41:38.390Z,3.20
2019-05-29T20:46:41.146Z,4.23
2019-05-29T20:51:45.201Z,3.33
2019-05-29T20:56:48.907Z,3.53
2019-05-29T21:01:52.575Z,2.03
2019-05-29T21:06:56.279Z,2.27
2019-05-29T21:12:00.066Z,2.83
2019-05-29T21:17:03.884Z,4.40
2019-05-29T21:22:08.144Z,3.13
2019-05-29T21:27:12.179Z,3.03
2019-05-29T21:32:15.848Z,3.47
2019-05-29T21:37:19.950Z,3.13
2019-05-29T21:42:23.822Z,2.63
2019-05-29T21:47:27.762Z,1.83
2019-05-29T21:52:31.689Z,2.37
2019-05-29T21:57:37.715Z,3.10
2019-05-29T22:02:44.625Z,2.43
2019-05-29T22:07:48.933Z,4.30
2019-05-29T22:12:54.410Z,3.93
2019-05-29T22:17:59.276Z,2.80
2019-05-29T22:23:03.134Z,2.00
2019-05-29T22:28:06.960Z,7.90
2019-05-29T22:33:11.442Z,3.63
2019-05-29T22:38:19.094Z,2.00
2019-05-29T22:43:25.183Z,5.67
2019-05-29T22:48:32.156Z,2.77
2019-05-29T22:53:37.297Z,2.77
2019-05-29T22:58:41.049Z,2.77
2019-05-29T23:03:44.749Z,1.47
2019-05-29T23:08:48.442Z,1.77
2019-05-29T23:13:52.362Z,2.80
2019-05-29T23:18:56.474Z,2.57
2019-05-29T23:24:00.268Z,2.80
2019-05-29T23:29:04.230Z,3.70
2019-05-29T23:34:07.977Z,2.33
2019-05-29T23:39:11.973Z,3.40
2019-05-29T23:44:15.982Z,6.27
2019-05-29T23:49:19.900Z,4.00
2019-05-29T23:54:23.601Z,3.80
2019-05-29T23:59:27.598Z,3.27
